Time;durP1;ratioP1;P1;durP2;ratioP2;P2;SDS_P1;SDS_P2;PMS_P1;PMS_P2;Temp;Humidity;BMP_temperature;BMP_pressure;BME280_temperature;BME280_humidity;BME280_pressure;Samples;Min_cycle;Max_cycle;Signal;HPM_P1;HPM_P2
2024/04/17 00:02:24;;;;;;;1999.90;999.90;;;;;;;;;;5430381;26;20079;-82
2024/04/17 00:04:50;;;;;;;1999.90;999.90;;;;;;;;;;5428817;26;20341;-80
2024/04/17 00:07:18;;;;;;;1999.90;999.90;;;;;;;;;;5430106;26;20022;-81
2024/04/17 00:09:46;;;;;;;1999.90;999.90;;;;;;;;;;5431891;26;20055;-80
2024/04/17 00:12:14;;;;;;;1999.90;999.90;;;;;;;;;;5426379;26;20018;-81
2024/04/17 00:14:40;;;;;;;1999.90;999.90;;;;;;;;;;5432933;26;20476;-81
2024/04/17 00:17:08;;;;;;;1999.90;999.90;;;;;;;;;;5427259;26;19995;-77
2024/04/17 00:19:34;;;;;;;1999.90;999.90;;;;;;;;;;5420057;26;20457;-78
2024/04/17 00:22:02;;;;;;;1999.90;999.90;;;;;;;;;;5428863;26;20014;-78
2024/04/17 00:24:28;;;;;;;1999.90;999.90;;;;;;;;;;5429867;26;20113;-78
2024/04/17 00:26:58;;;;;;;1999.90;999.90;;;;;;;;;;5428353;26;20011;-81
2024/04/17 00:29:24;;;;;;;1999.90;999.90;;;;;;;;;;5425000;26;20089;-83
2024/04/17 00:31:52;;;;;;;1999.90;999.90;;;;;;;;;;5430686;26;20008;-82
2024/04/17 00:34:18;;;;;;;1999.90;999.90;;;;;;;;;;5426622;26;20100;-80
2024/04/17 00:36:46;;;;;;;1999.90;999.90;;;;;;;;;;5428865;26;20414;-82
2024/04/17 00:39:11;;;;;;;1999.90;999.90;;;;;;;;;;5425519;26;19999;-81
2024/04/17 00:41:40;;;;;;;1999.90;999.90;;;;;;;;;;5427834;26;20011;-81
2024/04/17 00:44:08;;;;;;;1999.90;999.90;;;;;;;;;;5433493;26;20006;-81
2024/04/17 00:46:38;;;;;;;1999.90;999.90;;;;;;;;;;5427475;26;20016;-83
2024/04/17 00:49:04;;;;;;;1999.90;999.90;;;;;;;;;;5429314;26;20011;-83
2024/04/17 00:51:32;;;;;;;1999.90;999.90;;;;;;;;;;5430908;26;20003;-81
2024/04/17 00:53:58;;;;;;;1999.90;999.90;;;;;;;;;;5426372;26;20031;-81
2024/04/17 00:56:26;;;;;;;1999.90;999.90;;;;;;;;;;5428187;26;20084;-82
2024/04/17 00:58:53;;;;;;;1999.90;999.90;;;;;;;;;;5427409;26;20104;-82
2024/04/17 01:01:24;;;;;;;1999.90;999.90;;;;;;;;;;5429171;26;20011;-81
2024/04/17 01:03:49;;;;;;;1999.90;999.90;;;;;;;;;;5426309;26;20559;-84
2024/04/17 01:06:17;;;;;;;1999.90;999.90;;;;;;;;;;5424140;26;19999;-84
2024/04/17 01:08:43;;;;;;;1999.90;999.90;;;;;;;;;;5424594;26;19999;-83
2024/04/17 01:11:12;;;;;;;1999.90;999.90;;;;;;;;;;5426834;26;20423;-82
2024/04/17 01:13:37;;;;;;;1999.90;999.90;;;;;;;;;;5428245;26;20007;-83
2024/04/17 01:16:06;;;;;;;1999.90;999.90;;;;;;;;;;5426444;26;20061;-82
2024/04/17 01:18:36;;;;;;;1999.90;999.90;;;;;;;;;;5428922;26;20035;-82
2024/04/17 01:21:05;;;;;;;1999.90;999.90;;;;;;;;;;5428138;26;19999;-81
2024/04/17 01:23:31;;;;;;;1999.90;999.90;;;;;;;;;;5430358;26;20444;-83
2024/04/17 01:26:01;;;;;;;1999.90;999.90;;;;;;;;;;5424878;26;20011;-83
2024/04/17 01:28:27;;;;;;;1999.90;999.90;;;;;;;;;;5431748;26;20043;-83
2024/04/17 01:30:55;;;;;;;1999.90;999.90;;;;;;;;;;5427054;26;20549;-83
2024/04/17 01:33:21;;;;;;;1999.90;999.90;;;;;;;;;;5431842;26;20011;-84
2024/04/17 01:35:49;;;;;;;1999.90;999.90;;;;;;;;;;5427313;26;20481;-81
2024/04/17 01:38:15;;;;;;;1999.90;999.90;;;;;;;;;;5429969;26;20019;-81
2024/04/17 01:40:43;;;;;;;1999.90;999.90;;;;;;;;;;5427908;26;20471;-82
2024/04/17 01:43:11;;;;;;;1999.90;999.90;;;;;;;;;;5426744;26;20039;-83
2024/04/17 01:45:40;;;;;;;1999.90;999.90;;;;;;;;;;5425769;26;20014;-83
2024/04/17 01:48:06;;;;;;;1999.90;999.90;;;;;;;;;;5432772;26;20006;-81
2024/04/17 01:50:34;;;;;;;1999.90;999.90;;;;;;;;;;5429665;26;20014;-82
2024/04/17 01:52:59;;;;;;;1999.90;999.90;;;;;;;;;;5429033;26;20062;-83
2024/04/17 01:55:27;;;;;;;1999.90;999.90;;;;;;;;;;5435064;26;20519;-82
2024/04/17 01:57:54;;;;;;;1999.90;999.90;;;;;;;;;;5427242;26;20112;-83
2024/04/17 02:00:25;;;;;;;1999.90;999.90;;;;;;;;;;5430675;26;20110;-83
2024/04/17 02:02:51;;;;;;;1999.90;999.90;;;;;;;;;;5429810;26;20116;-82
2024/04/17 02:05:19;;;;;;;1999.90;999.90;;;;;;;;;;5432498;26;20011;-80
2024/04/17 02:07:45;;;;;;;1999.90;999.90;;;;;;;;;;5432761;26;20011;-82
2024/04/17 02:10:13;;;;;;;1999.90;999.90;;;;;;;;;;5434227;26;20014;-82
2024/04/17 02:12:39;;;;;;;1999.90;999.90;;;;;;;;;;5430125;26;20087;-82
2024/04/17 02:15:08;;;;;;;1999.90;999.90;;;;;;;;;;5432196;26;20464;-81
2024/04/17 02:17:36;;;;;;;1999.90;999.90;;;;;;;;;;5425363;26;20068;-82
2024/04/17 02:20:07;;;;;;;1999.90;999.90;;;;;;;;;;5434474;26;20018;-82
2024/04/17 02:22:32;;;;;;;1999.90;999.90;;;;;;;;;;5434782;26;20003;-80
2024/04/17 02:25:00;;;;;;;1999.90;999.90;;;;;;;;;;5429393;26;20459;-80
2024/04/17 02:27:26;;;;;;;1999.90;999.90;;;;;;;;;;5430821;26;20027;-81
2024/04/17 02:29:54;;;;;;;1999.90;999.90;;;;;;;;;;5436026;26;20018;-83
2024/04/17 02:32:20;;;;;;;1999.90;999.90;;;;;;;;;;5426226;26;20007;-81
2024/04/17 02:34:51;;;;;;;1999.90;999.90;;;;;;;;;;5429534;26;20080;-83
2024/04/17 02:37:16;;;;;;;1999.90;999.90;;;;;;;;;;5438231;26;20034;-82
2024/04/17 02:39:45;;;;;;;1999.90;999.90;;;;;;;;;;5425232;26;20529;-82
2024/04/17 02:42:10;;;;;;;1999.90;999.90;;;;;;;;;;5427514;26;20014;-83
2024/04/17 02:44:40;;;;;;;1999.90;999.90;;;;;;;;;;5436768;26;20317;-81
2024/04/17 02:47:06;;;;;;;1999.90;999.90;;;;;;;;;;5429480;26;20031;-82
2024/04/17 02:49:34;;;;;;;1999.90;999.90;;;;;;;;;;5426568;26;20457;-82
2024/04/17 02:52:02;;;;;;;1999.90;999.90;;;;;;;;;;5434041;26;20493;-83
2024/04/17 02:54:30;;;;;;;1999.90;999.90;;;;;;;;;;5429721;26;20004;-82
2024/04/17 02:56:56;;;;;;;1999.90;999.90;;;;;;;;;;5424136;26;20010;-84
2024/04/17 02:59:24;;;;;;;1999.90;999.90;;;;;;;;;;5431700;26;20017;-82
2024/04/17 03:01:50;;;;;;;1999.90;999.90;;;;;;;;;;5425332;26;20011;-82
2024/04/17 03:04:18;;;;;;;1999.90;999.90;;;;;;;;;;5429034;26;20003;-81
2024/04/17 03:06:43;;;;;;;1999.90;999.90;;;;;;;;;;5431483;26;20003;-82
2024/04/17 03:09:14;;;;;;;1999.90;999.90;;;;;;;;;;5423588;26;20003;-83
2024/04/17 03:11:43;;;;;;;1999.90;999.90;;;;;;;;;;5427022;26;20038;-81
2024/04/17 03:14:11;;;;;;;1999.90;999.90;;;;;;;;;;5421245;26;20014;-81
2024/04/17 03:16:37;;;;;;;1999.90;999.90;;;;;;;;;;5426919;26;20100;-80
2024/04/17 03:19:05;;;;;;;1999.90;999.90;;;;;;;;;;5426940;26;20007;-82
2024/04/17 03:21:30;;;;;;;1999.90;999.90;;;;;;;;;;5427485;26;20004;-81
2024/04/17 03:23:59;;;;;;;1999.90;999.90;;;;;;;;;;5428989;26;20423;-82
2024/04/17 03:26:27;;;;;;;1999.90;999.90;;;;;;;;;;5427982;26;20014;-83
2024/04/17 03:28:55;;;;;;;1999.90;999.90;;;;;;;;;;5438119;26;19999;-83
2024/04/17 03:31:21;;;;;;;1999.90;999.90;;;;;;;;;;5432376;26;20019;-82
2024/04/17 03:33:49;;;;;;;1999.90;999.90;;;;;;;;;;5430844;26;20076;-83
2024/04/17 03:36:15;;;;;;;1999.90;999.90;;;;;;;;;;5432094;26;20014;-83
2024/04/17 03:38:43;;;;;;;1999.90;999.90;;;;;;;;;;5441779;26;20007;-83
2024/04/17 03:41:11;;;;;;;1999.90;999.90;;;;;;;;;;5441154;26;20003;-82
2024/04/17 03:44:16;;;;;;;1999.90;999.90;;;;;;;;;;5431300;26;20003;-84
2024/04/17 03:46:45;;;;;;;1999.90;999.90;;;;;;;;;;5429842;26;20060;-77
2024/04/17 03:49:11;;;;;;;1999.90;999.90;;;;;;;;;;5430346;26;20011;-77
2024/04/17 03:51:39;;;;;;;1999.90;999.90;;;;;;;;;;5427329;26;20011;-77
2024/04/17 03:54:05;;;;;;;1999.90;999.90;;;;;;;;;;5429944;26;19999;-78
2024/04/17 03:56:33;;;;;;;1999.90;999.90;;;;;;;;;;5427131;26;20023;-83
2024/04/17 03:58:59;;;;;;;1999.90;999.90;;;;;;;;;;5427180;26;20003;-83
2024/04/17 04:01:31;;;;;;;1999.90;999.90;;;;;;;;;;5429317;26;20045;-83
2024/04/17 04:03:57;;;;;;;1999.90;999.90;;;;;;;;;;5421512;26;20014;-82
2024/04/17 04:06:25;;;;;;;1999.90;999.90;;;;;;;;;;5422844;26;19999;-82
2024/04/17 04:08:50;;;;;;;1999.90;999.90;;;;;;;;;;5433625;26;20010;-82
2024/04/17 04:11:19;;;;;;;1999.90;999.90;;;;;;;;;;5425625;26;20076;-82
2024/04/17 04:13:44;;;;;;;1999.90;999.90;;;;;;;;;;5424907;26;20047;-83
2024/04/17 04:16:12;;;;;;;1999.90;999.90;;;;;;;;;;5430273;26;20053;-83
2024/04/17 04:18:41;;;;;;;1999.90;999.90;;;;;;;;;;5428053;26;20009;-83
2024/04/17 04:21:09;;;;;;;1999.90;999.90;;;;;;;;;;5428116;26;20016;-82
2024/04/17 04:23:34;;;;;;;1999.90;999.90;;;;;;;;;;5421253;26;20098;-82
2024/04/17 04:26:03;;;;;;;1999.90;999.90;;;;;;;;;;5429916;26;20010;-80
2024/04/17 04:28:28;;;;;;;1999.90;999.90;;;;;;;;;;5427002;26;20035;-81
2024/04/17 04:30:57;;;;;;;1999.90;999.90;;;;;;;;;;5422428;26;20003;-83
2024/04/17 04:33:22;;;;;;;1999.90;999.90;;;;;;;;;;5428371;26;20071;-81
2024/04/17 04:35:53;;;;;;;1999.90;999.90;;;;;;;;;;5426157;26;20011;-81
2024/04/17 04:38:18;;;;;;;1999.90;999.90;;;;;;;;;;5423859;26;20088;-81
2024/04/17 04:40:47;;;;;;;1999.90;999.90;;;;;;;;;;5433652;26;20010;-81
2024/04/17 04:43:13;;;;;;;1999.90;999.90;;;;;;;;;;5425884;26;20108;-82
2024/04/17 04:45:41;;;;;;;1999.90;999.90;;;;;;;;;;5425076;26;20461;-84
2024/04/17 04:48:07;;;;;;;1999.90;999.90;;;;;;;;;;5427568;26;20011;-82
2024/04/17 04:50:35;;;;;;;1999.90;999.90;;;;;;;;;;5437886;26;20772;-83
2024/04/17 04:53:04;;;;;;;1999.90;999.90;;;;;;;;;;5432869;26;20052;-80
2024/04/17 04:55:32;;;;;;;1999.90;999.90;;;;;;;;;;5426445;26;20000;-80
2024/04/17 04:57:58;;;;;;;1999.90;999.90;;;;;;;;;;5436420;26;20346;-83
2024/04/17 05:00:26;;;;;;;1999.90;999.90;;;;;;;;;;5432093;26;20122;-82
2024/04/17 05:02:51;;;;;;;1999.90;999.90;;;;;;;;;;5430356;26;19995;-82
2024/04/17 05:05:23;;;;;;;1999.90;999.90;;;;;;;;;;5436364;26;20018;-81
2024/04/17 05:07:48;;;;;;;1999.90;999.90;;;;;;;;;;5429046;26;20035;-81
2024/04/17 05:10:19;;;;;;;1999.90;999.90;;;;;;;;;;5426501;26;20080;-80
2024/04/17 05:12:45;;;;;;;1999.90;999.90;;;;;;;;;;5430199;26;20014;-82
2024/04/17 05:15:13;;;;;;;1999.90;999.90;;;;;;;;;;5433767;26;20008;-81
2024/04/17 05:17:39;;;;;;;1999.90;999.90;;;;;;;;;;5433694;26;20356;-80
2024/04/17 05:20:08;;;;;;;1999.90;999.90;;;;;;;;;;5434581;26;20010;-81
2024/04/17 05:22:34;;;;;;;1999.90;999.90;;;;;;;;;;5434572;26;20007;-81
2024/04/17 05:25:02;;;;;;;1999.90;999.90;;;;;;;;;;5432139;26;20076;-82
2024/04/17 05:27:30;;;;;;;1999.90;999.90;;;;;;;;;;5435684;26;20084;-80
2024/04/17 05:29:58;;;;;;;1999.90;999.90;;;;;;;;;;5429131;26;20457;-81
2024/04/17 05:32:24;;;;;;;1999.90;999.90;;;;;;;;;;5429895;26;20168;-82
2024/04/17 05:34:52;;;;;;;1999.90;999.90;;;;;;;;;;5425841;26;20039;-80
2024/04/17 05:37:18;;;;;;;1999.90;999.90;;;;;;;;;;5432977;26;20047;-81
2024/04/17 05:39:46;;;;;;;1999.90;999.90;;;;;;;;;;5438542;26;19995;-80
2024/04/17 05:42:12;;;;;;;1999.90;999.90;;;;;;;;;;5428877;26;20356;-81
2024/04/17 05:44:43;;;;;;;1999.90;999.90;;;;;;;;;;5431119;26;20004;-80
2024/04/17 05:47:08;;;;;;;1999.90;999.90;;;;;;;;;;5432829;26;20003;-80
2024/04/17 05:49:37;;;;;;;1999.90;999.90;;;;;;;;;;5433247;26;20003;-81
2024/04/17 05:52:03;;;;;;;1999.90;999.90;;;;;;;;;;5431243;26;20011;-80
2024/04/17 05:54:31;;;;;;;1999.90;999.90;;;;;;;;;;5426065;26;20011;-79
2024/04/17 05:56:57;;;;;;;1999.90;999.90;;;;;;;;;;5428941;26;20164;-81
2024/04/17 05:59:25;;;;;;;1999.90;999.90;;;;;;;;;;5430606;26;20003;-80
2024/04/17 06:01:54;;;;;;;1999.90;999.90;;;;;;;;;;5425238;26;20012;-79
2024/04/17 06:04:23;;;;;;;1999.90;999.90;;;;;;;;;;5423474;26;20003;-80
2024/04/17 06:06:49;;;;;;;1999.90;999.90;;;;;;;;;;5420402;26;20027;-79
2024/04/17 06:09:17;;;;;;;1999.90;999.90;;;;;;;;;;5431391;26;20013;-79
2024/04/17 06:11:43;;;;;;;1999.90;999.90;;;;;;;;;;5431193;26;20032;-80
2024/04/17 06:14:11;;;;;;;1999.90;999.90;;;;;;;;;;5428948;26;20568;-80
2024/04/17 06:16:38;;;;;;;1999.90;999.90;;;;;;;;;;5429551;26;20003;-77
2024/04/17 06:19:08;;;;;;;1999.90;999.90;;;;;;;;;;5431093;26;20022;-76
2024/04/17 06:21:34;;;;;;;1999.90;999.90;;;;;;;;;;5433629;26;20013;-77
2024/04/17 06:24:03;;;;;;;1999.90;999.90;;;;;;;;;;5427790;26;19999;-77
2024/04/17 06:26:28;;;;;;;1999.90;999.90;;;;;;;;;;5435898;26;19999;-78
2024/04/17 06:28:57;;;;;;;1999.90;999.90;;;;;;;;;;5424015;26;20004;-77
2024/04/17 06:31:22;;;;;;;1999.90;999.90;;;;;;;;;;5426090;26;20461;-77
2024/04/17 06:33:51;;;;;;;1999.90;999.90;;;;;;;;;;5428865;26;20006;-77
2024/04/17 06:36:19;;;;;;;1999.90;999.90;;;;;;;;;;5427019;26;20886;-77
2024/04/17 06:38:47;;;;;;;1999.90;999.90;;;;;;;;;;5427384;26;20017;-80
2024/04/17 06:41:14;;;;;;;1999.90;999.90;;;;;;;;;;5426642;26;20041;-77
2024/04/17 06:43:42;;;;;;;1999.90;999.90;;;;;;;;;;5426928;26;20010;-77
2024/04/17 06:46:08;;;;;;;1999.90;999.90;;;;;;;;;;5428676;26;20542;-77
2024/04/17 06:48:36;;;;;;;1999.90;999.90;;;;;;;;;;5430774;26;20007;-78
2024/04/17 06:51:01;;;;;;;1999.90;999.90;;;;;;;;;;5425987;26;20017;-77
2024/04/17 06:53:32;;;;;;;1999.90;999.90;;;;;;;;;;5422454;26;20394;-78
2024/04/17 06:55:59;;;;;;;1999.90;999.90;;;;;;;;;;5429387;26;20004;-79
2024/04/17 06:58:28;;;;;;;1999.90;999.90;;;;;;;;;;5423751;26;20014;-78
2024/04/17 07:00:54;;;;;;;1999.90;999.90;;;;;;;;;;5426213;26;20071;-79
2024/04/17 07:03:22;;;;;;;1999.90;999.90;;;;;;;;;;5433312;26;20452;-79
2024/04/17 07:05:48;;;;;;;1999.90;999.90;;;;;;;;;;5430693;26;20004;-80
2024/04/17 07:08:16;;;;;;;1999.90;999.90;;;;;;;;;;5447344;26;20417;-80
2024/04/17 07:10:44;;;;;;;1999.90;999.90;;;;;;;;;;5430315;26;20040;-79
2024/04/17 07:13:13;;;;;;;1999.90;999.90;;;;;;;;;;5426454;26;20469;-79
2024/04/17 07:15:38;;;;;;;1999.90;999.90;;;;;;;;;;5440866;26;20094;-79
2024/04/17 07:18:07;;;;;;;1999.90;999.90;;;;;;;;;;5426779;26;20842;-79
2024/04/17 07:20:32;;;;;;;1999.90;999.90;;;;;;;;;;5424852;26;20089;-80
2024/04/17 07:23:00;;;;;;;1999.90;999.90;;;;;;;;;;5433548;26;20010;-77
2024/04/17 07:25:26;;;;;;;1999.90;999.90;;;;;;;;;;5425682;26;20079;-80
2024/04/17 07:27:57;;;;;;;1999.90;999.90;;;;;;;;;;5421730;26;20012;-82
2024/04/17 07:30:22;;;;;;;1999.90;999.90;;;;;;;;;;5429825;26;20019;-79
2024/04/17 07:32:51;;;;;;;1999.90;999.90;;;;;;;;;;5432966;26;20002;-80
2024/04/17 07:35:16;;;;;;;1999.90;999.90;;;;;;;;;;5422182;26;20015;-80
2024/04/17 07:37:44;;;;;;;1999.90;999.90;;;;;;;;;;5427764;26;20014;-82
2024/04/17 07:40:10;;;;;;;1999.90;999.90;;;;;;;;;;5426344;26;20039;-81
2024/04/17 07:42:43;;;;;;;1999.90;999.90;;;;;;;;;;5418073;26;20077;-83
2024/04/17 07:45:12;;;;;;;1999.90;999.90;;;;;;;;;;5436666;26;19999;-80
2024/04/17 07:47:40;;;;;;;1999.90;999.90;;;;;;;;;;5432957;26;20003;-78
2024/04/17 07:50:06;;;;;;;1999.90;999.90;;;;;;;;;;5423945;26;20011;-79
2024/04/17 07:52:34;;;;;;;1999.90;999.90;;;;;;;;;;5425511;26;20004;-80
2024/04/17 07:54:59;;;;;;;1999.90;999.90;;;;;;;;;;5425525;26;20116;-79
2024/04/17 07:57:28;;;;;;;1999.90;999.90;;;;;;;;;;5430546;26;20456;-79
2024/04/17 07:59:54;;;;;;;1999.90;999.90;;;;;;;;;;5428585;26;20075;-80
2024/04/17 08:02:25;;;;;;;1999.90;999.90;;;;;;;;;;5427545;26;20016;-80
2024/04/17 08:04:50;;;;;;;1999.90;999.90;;;;;;;;;;5426920;26;20003;-80
2024/04/17 08:07:18;;;;;;;1999.90;999.90;;;;;;;;;;5423200;26;20010;-79
2024/04/17 08:09:44;;;;;;;1999.90;999.90;;;;;;;;;;5424905;26;20052;-81
2024/04/17 08:12:12;;;;;;;1999.90;999.90;;;;;;;;;;5427928;26;19999;-80
2024/04/17 08:14:38;;;;;;;1999.90;999.90;;;;;;;;;;5432497;26;20452;-81
2024/04/17 08:17:06;;;;;;;1999.90;999.90;;;;;;;;;;5432166;26;20003;-80
2024/04/17 08:19:36;;;;;;;1999.90;999.90;;;;;;;;;;5434604;26;20080;-81
2024/04/17 08:22:05;;;;;;;1999.90;999.90;;;;;;;;;;5427187;26;20003;-79
2024/04/17 08:24:30;;;;;;;1999.90;999.90;;;;;;;;;;5431496;26;20104;-79
2024/04/17 08:26:59;;;;;;;1999.90;999.90;;;;;;;;;;5432557;26;20014;-79
2024/04/17 08:29:24;;;;;;;1999.90;999.90;;;;;;;;;;5427826;26;20499;-80
2024/04/17 08:31:52;;;;;;;1999.90;999.90;;;;;;;;;;5420890;26;20011;-78
2024/04/17 08:34:18;;;;;;;1999.90;999.90;;;;;;;;;;5429100;26;20011;-77
2024/04/17 08:36:49;;;;;;;1999.90;999.90;;;;;;;;;;5428646;26;20004;-77
2024/04/17 08:39:14;;;;;;;1999.90;999.90;;;;;;;;;;5431632;26;20032;-77
2024/04/17 08:41:50;;;;;;;1999.90;999.90;;;;;;;;;;5429717;26;20145;-77
2024/04/17 08:44:23;;;;;;;1999.90;999.90;;;;;;;;;;5426108;26;20003;-77
2024/04/17 08:46:50;;;;;;;1999.90;999.90;;;;;;;;;;5429558;26;20043;-77
2024/04/17 08:49:19;;;;;;;1999.90;999.90;;;;;;;;;;5430258;26;20015;-77
2024/04/17 08:51:48;;;;;;;1999.90;999.90;;;;;;;;;;5426168;26;20047;-77
2024/04/17 08:54:17;;;;;;;1999.90;999.90;;;;;;;;;;5423328;26;20013;-78
2024/04/17 08:56:44;;;;;;;1999.90;999.90;;;;;;;;;;5421126;26;20046;-76
2024/04/17 08:59:12;;;;;;;1999.90;999.90;;;;;;;;;;5422438;26;20003;-78
2024/04/17 09:01:41;;;;;;;1999.90;999.90;;;;;;;;;;5425706;26;20039;-77
2024/04/17 09:04:10;;;;;;;1999.90;999.90;;;;;;;;;;5434145;26;20003;-77
2024/04/17 09:06:39;;;;;;;1999.90;999.90;;;;;;;;;;5423729;26;20088;-77
2024/04/17 09:09:12;;;;;;;1999.90;999.90;;;;;;;;;;5423665;26;20000;-78
2024/04/17 09:11:38;;;;;;;1999.90;999.90;;;;;;;;;;5429527;26;20014;-77
2024/04/17 09:14:06;;;;;;;1999.90;999.90;;;;;;;;;;5427426;26;20047;-77
2024/04/17 09:16:32;;;;;;;1999.90;999.90;;;;;;;;;;5431707;26;20042;-78
2024/04/17 09:19:00;;;;;;;1999.90;999.90;;;;;;;;;;5418904;26;20450;-78
2024/04/17 09:21:26;;;;;;;1999.90;999.90;;;;;;;;;;5432216;26;20030;-78
2024/04/17 09:23:54;;;;;;;1999.90;999.90;;;;;;;;;;5421888;26;20075;-77
2024/04/17 09:26:23;;;;;;;1999.90;999.90;;;;;;;;;;5429819;26;20018;-77
2024/04/17 09:28:51;;;;;;;1999.90;999.90;;;;;;;;;;5431892;26;20052;-77
2024/04/17 09:31:17;;;;;;;1999.90;999.90;;;;;;;;;;5429027;26;20018;-78
2024/04/17 09:33:46;;;;;;;1999.90;999.90;;;;;;;;;;5424163;26;20472;-78
2024/04/17 09:36:12;;;;;;;1999.90;999.90;;;;;;;;;;5427421;26;19999;-81
2024/04/17 09:38:40;;;;;;;1999.90;999.90;;;;;;;;;;5429379;26;20036;-81
2024/04/17 09:41:07;;;;;;;1999.90;999.90;;;;;;;;;;5424375;26;19999;-81
2024/04/17 09:43:44;;;;;;;1999.90;999.90;;;;;;;;;;5434457;26;20015;-81
2024/04/17 09:46:14;;;;;;;1999.90;999.90;;;;;;;;;;5433315;26;19998;-78
2024/04/17 09:48:42;;;;;;;1999.90;999.90;;;;;;;;;;5427307;26;20499;-78
2024/04/17 09:51:09;;;;;;;1999.90;999.90;;;;;;;;;;5436046;26;20018;-78
2024/04/17 09:53:39;;;;;;;1999.90;999.90;;;;;;;;;;5430956;26;20053;-77
2024/04/17 09:56:05;;;;;;;1999.90;999.90;;;;;;;;;;5423453;26;20012;-78
2024/04/17 09:58:35;;;;;;;1999.90;999.90;;;;;;;;;;5434320;26;20003;-78
2024/04/17 10:01:06;;;;;;;1999.90;999.90;;;;;;;;;;5432688;26;20439;-77
2024/04/17 10:03:35;;;;;;;1999.90;999.90;;;;;;;;;;5427584;26;19999;-78
2024/04/17 10:06:02;;;;;;;1999.90;999.90;;;;;;;;;;5441140;26;20018;-76
2024/04/17 10:08:32;;;;;;;1999.90;999.90;;;;;;;;;;5427914;26;20003;-75
2024/04/17 10:10:57;;;;;;;1999.90;999.90;;;;;;;;;;5436478;26;19999;-78
2024/04/17 10:13:29;;;;;;;1999.90;999.90;;;;;;;;;;5434533;26;20480;-78
2024/04/17 10:15:55;;;;;;;1999.90;999.90;;;;;;;;;;5430185;26;20031;-78
2024/04/17 10:18:26;;;;;;;1999.90;999.90;;;;;;;;;;5432407;26;20003;-79
2024/04/17 10:20:52;;;;;;;1999.90;999.90;;;;;;;;;;5425299;26;20040;-79
2024/04/17 10:23:20;;;;;;;1999.90;999.90;;;;;;;;;;5431274;26;20076;-78
2024/04/17 10:25:47;;;;;;;1999.90;999.90;;;;;;;;;;5432384;26;20493;-78
2024/04/17 10:28:16;;;;;;;1999.90;999.90;;;;;;;;;;5430547;26;20464;-78
2024/04/17 10:30:42;;;;;;;1999.90;999.90;;;;;;;;;;5423158;26;20011;-78
2024/04/17 10:33:30;;;;;;;1999.90;999.90;;;;;;;;;;5433349;26;20010;-78
2024/04/17 10:35:56;;;;;;;1999.90;999.90;;;;;;;;;;5427798;26;20011;-78
2024/04/17 10:38:26;;;;;;;1999.90;999.90;;;;;;;;;;5427574;26;20003;-78
2024/04/17 10:40:53;;;;;;;1999.90;999.90;;;;;;;;;;5432989;26;20011;-78
2024/04/17 10:43:21;;;;;;;1999.90;999.90;;;;;;;;;;5430785;26;20026;-78
2024/04/17 10:45:55;;;;;;;1999.90;999.90;;;;;;;;;;5429670;26;20019;-78
2024/04/17 10:48:23;;;;;;;1999.90;999.90;;;;;;;;;;5431898;26;20011;-79
2024/04/17 10:50:52;;;;;;;1999.90;999.90;;;;;;;;;;5430368;26;20014;-79
2024/04/17 10:53:21;;;;;;;1999.90;999.90;;;;;;;;;;5426955;26;20466;-79
2024/04/17 10:55:48;;;;;;;1999.90;999.90;;;;;;;;;;5427349;26;20011;-80
2024/04/17 10:58:19;;;;;;;1999.90;999.90;;;;;;;;;;5434064;26;20050;-77
2024/04/17 11:00:44;;;;;;;1999.90;999.90;;;;;;;;;;5428897;26;20398;-78
2024/04/17 11:03:13;;;;;;;1999.90;999.90;;;;;;;;;;5431519;26;20017;-77
2024/04/17 11:05:39;;;;;;;1999.90;999.90;;;;;;;;;;5429993;26;20097;-77
2024/04/17 11:08:11;;;;;;;1999.90;999.90;;;;;;;;;;5429008;26;20006;-77
2024/04/17 11:10:37;;;;;;;1999.90;999.90;;;;;;;;;;5436400;26;20031;-78
2024/04/17 11:13:05;;;;;;;1999.90;999.90;;;;;;;;;;5426969;26;20076;-77
2024/04/17 11:15:31;;;;;;;1999.90;999.90;;;;;;;;;;5428587;26;20491;-78
2024/04/17 11:17:59;;;;;;;1999.90;999.90;;;;;;;;;;5426230;26;20003;-78
2024/04/17 11:20:25;;;;;;;1999.90;999.90;;;;;;;;;;5435133;26;20035;-77
2024/04/17 11:22:53;;;;;;;1999.90;999.90;;;;;;;;;;5422997;26;20080;-77
2024/04/17 11:25:22;;;;;;;1999.90;999.90;;;;;;;;;;5430723;26;20097;-77
2024/04/17 11:27:50;;;;;;;1999.90;999.90;;;;;;;;;;5425607;26;20010;-76
2024/04/17 11:30:16;;;;;;;1999.90;999.90;;;;;;;;;;5427624;26;20015;-77
2024/04/17 11:32:45;;;;;;;1999.90;999.90;;;;;;;;;;5427729;26;19999;-77
2024/04/17 11:35:14;;;;;;;1999.90;999.90;;;;;;;;;;5429630;26;20385;-77
2024/04/17 11:37:42;;;;;;;1999.90;999.90;;;;;;;;;;5424620;26;19995;-78
2024/04/17 11:40:10;;;;;;;1999.90;999.90;;;;;;;;;;5426204;26;20055;-78
2024/04/17 11:42:43;;;;;;;1999.90;999.90;;;;;;;;;;5429945;26;19999;-77
2024/04/17 11:45:09;;;;;;;1999.90;999.90;;;;;;;;;;5429368;26;20015;-78
2024/04/17 11:47:37;;;;;;;1999.90;999.90;;;;;;;;;;5431121;26;20003;-78
2024/04/17 11:50:07;;;;;;;1999.90;999.90;;;;;;;;;;5425969;26;20171;-78
2024/04/17 11:52:33;;;;;;;1999.90;999.90;;;;;;;;;;5424981;26;20031;-78
2024/04/17 11:55:01;;;;;;;1999.90;999.90;;;;;;;;;;5428208;26;20085;-78
2024/04/17 11:57:28;;;;;;;1999.90;999.90;;;;;;;;;;5427991;26;20015;-81
2024/04/17 11:59:59;;;;;;;1999.90;999.90;;;;;;;;;;5431252;26;19996;-81
2024/04/17 12:02:24;;;;;;;1999.90;999.90;;;;;;;;;;5430601;26;20010;-83
2024/04/17 12:04:53;;;;;;;1999.90;999.90;;;;;;;;;;5420666;26;20022;-82
2024/04/17 12:07:18;;;;;;;1999.90;999.90;;;;;;;;;;5429934;26;20011;-80
2024/04/17 12:09:48;;;;;;;1999.90;999.90;;;;;;;;;;5420287;26;20013;-79
2024/04/17 12:12:17;;;;;;;1999.90;999.90;;;;;;;;;;5424123;26;20011;-83
2024/04/17 12:14:46;;;;;;;1999.90;999.90;;;;;;;;;;5424483;26;20015;-82
2024/04/17 12:17:14;;;;;;;1999.90;999.90;;;;;;;;;;5425988;26;20088;-83
2024/04/17 12:19:42;;;;;;;1999.90;999.90;;;;;;;;;;5430600;26;20053;-83
2024/04/17 12:22:08;;;;;;;1999.90;999.90;;;;;;;;;;5426854;26;20015;-85
2024/04/17 12:27:16;;;;;;;1999.90;999.90;;;;;;;;;;5431439;26;20484;-87
2024/04/17 12:29:45;;;;;;;1999.90;999.90;;;;;;;;;;5430760;26;20413;-85
2024/04/17 12:32:13;;;;;;;1999.90;999.90;;;;;;;;;;5431599;26;20002;-86
2024/04/17 12:34:44;;;;;;;1999.90;999.90;;;;;;;;;;5429760;26;19999;-84
2024/04/17 12:37:15;;;;;;;1999.90;999.90;;;;;;;;;;5428872;26;20472;-86
2024/04/17 12:39:43;;;;;;;1999.90;999.90;;;;;;;;;;5428744;26;20011;-83
2024/04/17 12:42:12;;;;;;;1999.90;999.90;;;;;;;;;;5429682;26;20006;-85
2024/04/17 12:44:42;;;;;;;1999.90;999.90;;;;;;;;;;5434677;26;20035;-85
2024/04/17 12:47:10;;;;;;;1999.90;999.90;;;;;;;;;;5425416;26;20016;-85
2024/04/17 12:49:37;;;;;;;1999.90;999.90;;;;;;;;;;5426287;26;20014;-84
2024/04/17 12:52:08;;;;;;;1999.90;999.90;;;;;;;;;;5429891;26;20017;-84
2024/04/17 12:54:36;;;;;;;1999.90;999.90;;;;;;;;;;5424871;26;20031;-84
2024/04/17 12:57:02;;;;;;;1999.90;999.90;;;;;;;;;;5426671;26;20063;-83
2024/04/17 12:59:31;;;;;;;1999.90;999.90;;;;;;;;;;5439080;26;20014;-82
2024/04/17 13:02:00;;;;;;;1999.90;999.90;;;;;;;;;;5441753;26;20013;-84
2024/04/17 13:04:25;;;;;;;1999.90;999.90;;;;;;;;;;5423505;26;20004;-83
2024/04/17 13:06:54;;;;;;;1999.90;999.90;;;;;;;;;;5429344;26;19999;-84
2024/04/17 13:09:22;;;;;;;1999.90;999.90;;;;;;;;;;5431361;26;20011;-83
2024/04/17 13:11:51;;;;;;;1999.90;999.90;;;;;;;;;;5431483;26;20012;-87
2024/04/17 13:14:16;;;;;;;1999.90;999.90;;;;;;;;;;5423408;26;20003;-84
2024/04/17 13:16:44;;;;;;;1999.90;999.90;;;;;;;;;;5429281;26;20013;-80
2024/04/17 13:19:10;;;;;;;1999.90;999.90;;;;;;;;;;5431484;26;20010;-82
2024/04/17 13:21:38;;;;;;;1999.90;999.90;;;;;;;;;;5429794;26;20591;-83
2024/04/17 13:24:04;;;;;;;1999.90;999.90;;;;;;;;;;5432856;26;20016;-83
2024/04/17 13:26:35;;;;;;;1999.90;999.90;;;;;;;;;;5431155;26;20502;-82
2024/04/17 13:29:01;;;;;;;1999.90;999.90;;;;;;;;;;5431345;26;20016;-83
2024/04/17 13:31:29;;;;;;;1999.90;999.90;;;;;;;;;;5430278;26;20781;-83
2024/04/17 13:33:55;;;;;;;1999.90;999.90;;;;;;;;;;5428099;26;20015;-82
2024/04/17 13:36:23;;;;;;;1999.90;999.90;;;;;;;;;;5425516;26;20050;-83
2024/04/17 13:38:48;;;;;;;1999.90;999.90;;;;;;;;;;5428790;26;20011;-84
2024/04/17 13:41:17;;;;;;;1999.90;999.90;;;;;;;;;;5434304;26;20468;-83
2024/04/17 13:43:47;;;;;;;1999.90;999.90;;;;;;;;;;5432151;26;20014;-83
2024/04/17 13:46:16;;;;;;;1999.90;999.90;;;;;;;;;;5431507;26;20026;-84
2024/04/17 13:48:43;;;;;;;1999.90;999.90;;;;;;;;;;5433881;26;19995;-83